CheckWX is a tool to help pilots better visualize weather data.  It is not intended as a substitute for an official pre-flight weather briefing.

07:06:41 UTC

KMTN METAR
Martin State Airport
Baltimore, Maryland, USA
Current

25 mins ago

KMTN 160642Z AUTO 18004KT 10SM CLR 22/16 A2997 RMK AO2
Observed
Jun-16 @ 06:42 UTC
Wind
  • 180° at 4 KTS
Visibility
10 SM
Flight Rules
VFR
Cloud Levels
  • Clear skies
Temperature
22°C / 72°F
Dewpoint
16°C / 61°F
Humidity
69%
Altimeter
29.97" Hg
Pressure
1014.92 hPa
Previous

46 mins ago

KMTN 160621Z AUTO 18003KT 10SM CLR 22/15 A2997 RMK AO2
Observed
Jun-16 @ 06:21 UTC
Wind
  • 180° at 3 KTS
Visibility
10 SM
Flight Rules
VFR
Cloud Levels
  • Clear skies
Temperature
22°C / 72°F
Dewpoint
15°C / 59°F
Humidity
65%
Altimeter
29.97" Hg
Pressure
1014.92 hPa
Previous

1 hour ago

KMTN 160603Z AUTO 18004KT 10SM CLR 22/15 A2997 RMK AO2
Observed
Jun-16 @ 06:03 UTC
Wind
  • 180° at 4 KTS
Visibility
10 SM
Flight Rules
VFR
Cloud Levels
  • Clear skies
Temperature
22°C / 72°F
Dewpoint
15°C / 59°F
Humidity
65%
Altimeter
29.97" Hg
Pressure
1014.92 hPa